Zhanyi, China
Current Conditions -  °F | °C
As of 9:00 PM on Thursday 23 Oct 2014 (Local Time) from ZPPP Reporting Station
Clear Clear  
Wind Chill: 55°   Ceiling: Unl
Heat Index: 55°   Visibility: 6mi
Dew Point: 46°   Wind: 7mph
Humidity: 72%   Direction: 220°SW
Pressure: 30.24"   Gusts: NA
Location:  25.58°N, 103.83°E
Report Text: ZPPP 231300Z 22003MPS CAVOK 13/08 Q1024 NOSIG
Loading
Personal Weather Stations






























Interactive Weather Map
Tropical Storm Tracking
New forecast layout! Learn more

10-Day Weather Forecast

Advertisements
Track Severe Weather on mobile